Don's Testing Zone


Current Conditions
weather data
source:

National Weather Service
Mostly Clear Hot Springs, AR
Mostly Clear, 77°F
Thursday, June 29, 2017 1:53 AM CDT
Temperature: 77°F/25°C
Humidity: 79%
Barometer: 29.94in/1013.0mb Barometer Steady
Wind: W at 7mph/11kmh
View other cities:
Searcy | Little Rock | Hot Springs | Russellville | More...
Astronomical Conditions (Clear Sky Clock)
Searcy Clear Sky Clock
    

Radar Images

NWS
    Wx Underground

NWS METAR weather data

ADDS - METARS form results





Aviation Digital Data Service (ADDS) Output produced by METARs form (0704 UTC 29 June 2017) found at http://www.aviationweather.gov/adds/metars/ 

KHOT 290653Z AUTO 15006KT 10SM FEW065 25/21 A2994 RMK AO2 SLP130 T02500211

KHOT 290553Z AUTO 13005KT 10SM CLR 26/20 A2994 RMK AO2 SLP131 T02560200 1030020256 403220189 50004

KHOT 290453Z AUTO 15006KT 10SM CLR 26/21 A2994 RMK AO2 SLP131 T02610206

KHOT 290353Z AUTO 14004KT 10SM CLR 26/21 A2994 RMK AO2 SLP130 T02610211

KHOT 290253Z AUTO 13005KT 10SM CLR 27/21 A2993 RMK AO2 SLP127 T02670211 53003

KHOT 290153Z AUTO 12004KT 10SM CLR 28/21 A2992 RMK AO2 SLP123 T02780206

KHOT 290053Z AUTO 15008KT 120V180 10SM FEW042 29/21 A2992 RMK AO2 SLP123T02890206

KHOT 282353Z AUTO 15009KT 10SM FEW055 30/20 A2992 RMK AO2 SLP124 T03000200 1032220294 56013

KHOT 282253Z AUTO 16007KT 10SM SCT044 31/20 A2992 RMK AO2 SLP125 T03110200

KHOT 282153Z AUTO 15008KT 10SM CLR 31/20 A2994 RMK AO2 SLP130 T03110200

KHOT 282053Z AUTO 13006KT 10SM FEW049 SCT055 31/19 A2995 RMK AO2 SLP136T03060189 57019

KHOT 281953Z AUTO 18008KT 10SM CLR 31/17 A2997 RMK AO2 SLP142 T03110172

KHOT 281853Z AUTO 18009KT 10SM CLR 31/17 A2999 RMK AO2 SLP150 T03060172

KHOT 281753Z AUTO 20008KT 10SM SCT043 29/18 A3001 RMK AO2 SLP156 T02940178 1030620211 56007

KHOT 281653Z AUTO 21006KT 10SM SCT042 29/18 A3002 RMK AO2 SLP158 T02940183

KHOT 281553Z AUTO 18007KT 10SM FEW037 29/19 A3002 RMK AO2 SLP159 T02890189

KHOT 281453Z AUTO 21005KT 10SM CLR 27/19 A3003 RMK AO2 SLP163 T02720194 50005

KHOT 281353Z AUTO 00000KT 10SM CLR 25/19 A3005 RMK AO2 SLP168 T02500189

KHOT 281253Z AUTO 10004KT 10SM CLR 23/18 A3003 RMK AO2 SLP161 T02330183

KHOT 281153Z AUTO 09004KT 10SM CLR 21/18 A3002 RMK AO2 SLP158 T02110178 1021720189 53005

KHOT 281053Z AUTO 10003KT 10SM CLR 20/17 A3002 RMK AO2 SLP157 T02000172

KHOT 280953Z AUTO 09004KT 10SM CLR 20/17 A3000 RMK AO2 SLP152 T02000172

KHOT 280853Z AUTO 08004KT 10SM CLR 20/18 A3000 RMK AO2 SLP153 T02000178 58006

KHOT 280753Z AUTO 09004KT 10SM CLR 21/18 A3001 RMK AO2 SLP156 T02110178